createdAt,value
2022-08-21T00:00:35.623Z,40.98
2022-08-21T00:05:57.371Z,40.54
2022-08-21T00:11:19.553Z,41.18
2022-08-21T00:16:41.943Z,40.85
2022-08-21T00:22:03.791Z,40.93
2022-08-21T00:27:25.584Z,40.94
2022-08-21T00:32:47.503Z,41.07
2022-08-21T00:38:10.464Z,40.77
2022-08-21T00:43:34.930Z,41.31
2022-08-21T00:48:59.089Z,40.99
2022-08-21T00:54:25.810Z,40.68
2022-08-21T00:59:50.727Z,41.13
2022-08-21T01:05:14.201Z,41.12
2022-08-21T01:10:38.185Z,41.08
2022-08-21T01:16:03.876Z,41.14
2022-08-21T01:21:28.688Z,41.47
2022-08-21T01:26:52.062Z,41.13
2022-08-21T01:32:17.753Z,41.11
2022-08-21T01:37:40.126Z,41.18
2022-08-21T01:43:02.254Z,41.18
2022-08-21T01:48:24.024Z,41.13
2022-08-21T01:53:45.873Z,41.23
2022-08-21T01:59:08.444Z,41.25
2022-08-21T02:04:30.175Z,40.97
2022-08-21T02:09:51.890Z,41.28
2022-08-21T02:15:15.717Z,41.58
2022-08-21T02:20:40.586Z,41.37
2022-08-21T02:26:04.824Z,41.54
2022-08-21T02:31:27.684Z,41.68
2022-08-21T02:36:59.600Z,41.36
2022-08-21T02:42:22.469Z,41.49
2022-08-21T02:47:52.463Z,41.31
2022-08-21T02:53:17.702Z,41.85
2022-08-21T02:58:41.509Z,41.50
2022-08-21T03:04:03.316Z,41.20
2022-08-21T03:09:25.298Z,41.78
2022-08-21T03:14:46.985Z,41.61
2022-08-21T03:20:10.192Z,41.72
2022-08-21T03:25:40.454Z,41.51
2022-08-21T03:31:02.848Z,41.92
2022-08-21T03:36:25.228Z,41.79
2022-08-21T03:41:48.320Z,41.65
2022-08-21T03:47:10.753Z,41.64
2022-08-21T03:52:32.537Z,41.52
2022-08-21T03:57:54.742Z,41.80
2022-08-21T04:03:17.334Z,41.60
2022-08-21T04:08:39.272Z,41.82
2022-08-21T04:14:01.201Z,41.79
2022-08-21T04:19:22.966Z,41.64
2022-08-21T04:24:44.700Z,41.69
2022-08-21T04:30:07.255Z,41.70
2022-08-21T04:35:29.424Z,41.76
2022-08-21T04:40:52.493Z,41.90
2022-08-21T04:46:14.260Z,41.72
2022-08-21T04:51:38.865Z,41.85
2022-08-21T04:57:06.531Z,41.73
2022-08-21T05:02:28.313Z,41.74
2022-08-21T05:07:51.115Z,41.83
2022-08-21T05:13:16.769Z,41.86
2022-08-21T05:18:38.576Z,41.92
2022-08-21T05:24:00.342Z,41.84
2022-08-21T05:29:22.827Z,41.72
2022-08-21T05:34:46.844Z,41.60
2022-08-21T05:40:21.378Z,41.89
2022-08-21T05:45:44.605Z,41.38
2022-08-21T05:51:09.455Z,41.76
2022-08-21T05:56:31.192Z,41.57
2022-08-21T06:01:53.913Z,41.87
2022-08-21T06:07:16.024Z,41.75
2022-08-21T06:12:37.824Z,41.49
2022-08-21T06:18:04.282Z,41.66
2022-08-21T06:23:31.708Z,41.41
2022-08-21T06:28:55.328Z,41.75
2022-08-21T06:34:17.500Z,41.70
2022-08-21T06:39:42.061Z,41.56
2022-08-21T06:45:09.843Z,41.30
2022-08-21T06:50:32.487Z,40.78
2022-08-21T06:55:54.418Z,40.30
2022-08-21T07:01:16.274Z,40.37
2022-08-21T07:06:38.051Z,40.21
2022-08-21T07:11:59.957Z,40.12
2022-08-21T07:17:22.097Z,40.36
2022-08-21T07:22:43.794Z,40.21
2022-08-21T07:28:05.731Z,39.99
2022-08-21T07:33:29.250Z,40.02
2022-08-21T07:38:52.554Z,40.13
2022-08-21T07:44:14.758Z,40.23
2022-08-21T07:49:36.521Z,40.08
2022-08-21T07:55:00.747Z,40.08
2022-08-21T08:00:27.312Z,39.88
2022-08-21T08:05:49.094Z,40.08
2022-08-21T08:11:12.016Z,39.83
2022-08-21T08:16:33.764Z,39.58
2022-08-21T08:21:55.775Z,39.88
2022-08-21T08:27:18.416Z,39.96
2022-08-21T08:32:41.088Z,40.30
2022-08-21T08:38:03.260Z,40.35
2022-08-21T08:43:24.954Z,40.54
2022-08-21T08:48:58.317Z,40.65
2022-08-21T08:54:32.655Z,40.38
2022-08-21T09:00:00.702Z,40.56
2022-08-21T09:05:41.400Z,40.51
2022-08-21T09:11:09.999Z,40.36
2022-08-21T09:17:13.171Z,40.35
2022-08-21T09:22:40.775Z,40.25
2022-08-21T09:28:02.589Z,40.39
2022-08-21T09:33:24.431Z,40.15
2022-08-21T09:38:54.310Z,40.46
2022-08-21T09:44:26.944Z,40.53
2022-08-21T09:49:48.651Z,40.38
2022-08-21T09:55:39.322Z,40.37
2022-08-21T10:01:06.635Z,40.33
2022-08-21T10:06:29.714Z,40.23
2022-08-21T10:12:12.167Z,40.06
2022-08-21T10:17:51.905Z,40.11
2022-08-21T10:23:34.631Z,39.74
2022-08-21T10:29:22.639Z,40.12
2022-08-21T10:34:59.407Z,40.07
2022-08-21T10:40:43.557Z,39.63
2022-08-21T10:46:17.501Z,39.40
2022-08-21T10:52:03.054Z,39.52
2022-08-21T10:57:43.177Z,39.45
2022-08-21T11:03:25.800Z,39.55
2022-08-21T11:08:53.442Z,39.62
2022-08-21T11:14:35.528Z,39.52
2022-08-21T11:20:23.385Z,39.73
2022-08-21T11:25:59.262Z,39.51
2022-08-21T11:31:32.807Z,39.57
2022-08-21T11:37:30.879Z,39.62
2022-08-21T11:43:19.549Z,39.54
2022-08-21T11:49:24.401Z,39.58
2022-08-21T11:54:51.939Z,39.72
2022-08-21T12:00:26.931Z,40.03
2022-08-21T12:06:24.140Z,39.63
2022-08-21T12:12:01.538Z,39.86
2022-08-21T12:17:35.847Z,39.63
2022-08-21T12:23:13.189Z,39.96
2022-08-21T12:28:35.511Z,40.12
2022-08-21T12:34:01.503Z,40.35
2022-08-21T12:39:28.824Z,40.11
2022-08-21T12:45:28.736Z,39.95
2022-08-21T12:50:59.411Z,40.06
2022-08-21T12:56:27.863Z,39.60
2022-08-21T13:01:52.831Z,39.77
2022-08-21T13:07:22.709Z,39.80
2022-08-21T13:12:45.699Z,39.24
2022-08-21T13:18:08.505Z,39.51
2022-08-21T13:23:32.539Z,39.50
2022-08-21T13:28:54.315Z,39.34
2022-08-21T13:34:18.922Z,39.04
2022-08-21T13:39:40.803Z,39.12
2022-08-21T13:45:02.538Z,38.97
2022-08-21T13:50:27.696Z,39.16
2022-08-21T13:55:49.604Z,38.96
2022-08-21T14:01:34.926Z,39.17
2022-08-21T14:06:57.358Z,39.07
2022-08-21T14:12:30.571Z,38.83
2022-08-21T14:17:52.851Z,38.37
2022-08-21T14:23:28.464Z,37.87
2022-08-21T14:28:50.374Z,37.77
2022-08-21T14:34:19.449Z,37.39
2022-08-21T14:39:45.135Z,37.60
2022-08-21T14:45:15.354Z,37.57
2022-08-21T14:50:38.639Z,37.64
2022-08-21T14:56:06.500Z,37.60
2022-08-21T15:01:28.432Z,37.70
2022-08-21T15:06:50.301Z,37.87
2022-08-21T15:12:14.075Z,37.66
2022-08-21T15:17:36.874Z,37.70
2022-08-21T15:22:58.682Z,37.78
2022-08-21T15:28:22.393Z,37.84
2022-08-21T15:33:47.192Z,37.88
2022-08-21T15:39:08.880Z,37.58
2022-08-21T15:44:30.791Z,38.10
2022-08-21T15:49:52.738Z,38.26
2022-08-21T15:55:15.220Z,38.31
2022-08-21T16:00:37.470Z,38.69
2022-08-21T16:05:59.178Z,38.47
2022-08-21T16:11:21.119Z,38.60
2022-08-21T16:16:43.781Z,38.63
2022-08-21T16:22:05.829Z,38.65
2022-08-21T16:27:27.673Z,38.56
2022-08-21T16:32:52.118Z,38.50
2022-08-21T16:38:13.883Z,38.70
2022-08-21T16:43:35.928Z,38.36
2022-08-21T16:48:57.615Z,38.68
2022-08-21T16:54:19.347Z,38.62
2022-08-21T16:59:41.346Z,38.89
2022-08-21T17:05:03.771Z,38.92
2022-08-21T17:10:25.504Z,38.89
2022-08-21T17:15:47.559Z,38.92
2022-08-21T17:21:09.300Z,38.87
2022-08-21T17:26:31.589Z,38.86
2022-08-21T17:31:53.599Z,38.76
2022-08-21T17:37:15.608Z,38.97
2022-08-21T17:42:37.319Z,39.07
2022-08-21T17:47:59.036Z,39.04
2022-08-21T17:53:20.870Z,39.45
2022-08-21T17:58:49.120Z,38.92
2022-08-21T18:04:12.199Z,39.37
2022-08-21T18:09:33.912Z,39.22
2022-08-21T18:14:55.732Z,39.28
2022-08-21T18:20:20.853Z,39.34
2022-08-21T18:25:46.677Z,39.03
2022-08-21T18:31:11.004Z,39.08
2022-08-21T18:36:32.755Z,39.31
2022-08-21T18:41:55.648Z,39.03
2022-08-21T18:47:29.047Z,38.94
2022-08-21T18:52:53.701Z,39.03
2022-08-21T18:58:17.019Z,38.93
2022-08-21T19:03:39.761Z,38.65
2022-08-21T19:09:02.231Z,38.76
2022-08-21T19:14:24.055Z,38.74
2022-08-21T19:19:47.586Z,38.58
2022-08-21T19:25:14.030Z,38.44
2022-08-21T19:30:41.714Z,38.71
2022-08-21T19:36:05.061Z,38.30
2022-08-21T19:41:31.745Z,38.72
2022-08-21T19:46:55.028Z,38.90
2022-08-21T19:52:19.023Z,39.08
2022-08-21T19:57:40.808Z,39.18
2022-08-21T20:03:02.818Z,39.35
2022-08-21T20:08:28.163Z,39.23
2022-08-21T20:13:50.066Z,39.64
2022-08-21T20:19:11.805Z,39.03
2022-08-21T20:24:34.258Z,39.35
2022-08-21T20:29:56.062Z,39.54
2022-08-21T20:35:17.819Z,39.44
2022-08-21T20:40:39.682Z,39.47
2022-08-21T20:46:02.155Z,39.71
2022-08-21T20:51:34.873Z,39.67
2022-08-21T20:57:14.865Z,39.62
2022-08-21T21:02:42.939Z,39.64
2022-08-21T21:08:12.877Z,39.56
2022-08-21T21:13:43.064Z,39.81
2022-08-21T21:19:14.486Z,39.88
2022-08-21T21:24:51.734Z,39.78
2022-08-21T21:30:28.749Z,39.73
2022-08-21T21:35:55.053Z,39.81
2022-08-21T21:41:33.697Z,39.75
2022-08-21T21:47:11.843Z,39.87
2022-08-21T21:52:54.590Z,39.63
2022-08-21T21:58:38.650Z,39.92
2022-08-21T22:04:16.917Z,40.12
2022-08-21T22:09:43.675Z,40.24
2022-08-21T22:15:07.058Z,40.13
2022-08-21T22:20:35.214Z,40.22
2022-08-21T22:26:04.169Z,40.18
2022-08-21T22:31:32.801Z,40.21
2022-08-21T22:37:01.174Z,40.39
2022-08-21T22:42:25.597Z,40.57
2022-08-21T22:47:48.951Z,40.28
2022-08-21T22:53:11.534Z,40.41
2022-08-21T22:58:55.610Z,40.32
2022-08-21T23:04:21.830Z,40.23
2022-08-21T23:09:48.430Z,40.26
2022-08-21T23:15:18.092Z,40.39
2022-08-21T23:20:56.122Z,40.48
2022-08-21T23:26:22.841Z,40.69
2022-08-21T23:31:58.270Z,40.45
2022-08-21T23:43:57.687Z,40.55
2022-08-21T23:49:43.928Z,40.43
2022-08-21T23:55:24.737Z,40.09
